sensor_id;sensor_type;location;lat;lon;timestamp;temperature;humidity
23713;DHT22;12035;49.978;8.298;2023-02-21T00:03:45;12.20;58.60
23713;DHT22;12035;49.978;8.298;2023-02-21T00:09:00;12.10;58.80
23713;DHT22;12035;49.978;8.298;2023-02-21T00:14:15;12.00;58.80
23713;DHT22;12035;49.978;8.298;2023-02-21T00:19:32;12.00;59.10
23713;DHT22;12035;49.978;8.298;2023-02-21T00:24:46;11.90;59.20
23713;DHT22;12035;49.978;8.298;2023-02-21T00:30:01;11.90;59.20
23713;DHT22;12035;49.978;8.298;2023-02-21T00:35:17;11.80;59.30
23713;DHT22;12035;49.978;8.298;2023-02-21T00:40:31;11.70;59.30
23713;DHT22;12035;49.978;8.298;2023-02-21T00:45:46;11.70;59.40
23713;DHT22;12035;49.978;8.298;2023-02-21T00:51:02;11.70;59.60
23713;DHT22;12035;49.978;8.298;2023-02-21T00:56:16;11.70;59.60
23713;DHT22;12035;49.978;8.298;2023-02-21T01:01:31;11.70;59.70
23713;DHT22;12035;49.978;8.298;2023-02-21T01:06:49;11.70;59.70
23713;DHT22;12035;49.978;8.298;2023-02-21T01:12:04;11.70;60.00
23713;DHT22;12035;49.978;8.298;2023-02-21T01:17:19;11.60;59.90
23713;DHT22;12035;49.978;8.298;2023-02-21T01:22:35;11.60;59.90
23713;DHT22;12035;49.978;8.298;2023-02-21T01:27:49;11.60;60.00
23713;DHT22;12035;49.978;8.298;2023-02-21T01:33:04;11.50;60.00
23713;DHT22;12035;49.978;8.298;2023-02-21T01:38:20;11.50;60.10
23713;DHT22;12035;49.978;8.298;2023-02-21T01:43:35;11.50;60.30
23713;DHT22;12035;49.978;8.298;2023-02-21T01:48:52;11.50;60.40
23713;DHT22;12035;49.978;8.298;2023-02-21T01:54:10;11.40;60.70
23713;DHT22;12035;49.978;8.298;2023-02-21T01:59:25;11.30;60.90
23713;DHT22;12035;49.978;8.298;2023-02-21T02:04:41;11.20;60.90
23713;DHT22;12035;49.978;8.298;2023-02-21T02:09:58;11.20;61.20
23713;DHT22;12035;49.978;8.298;2023-02-21T02:15:23;11.20;61.30
23713;DHT22;12035;49.978;8.298;2023-02-21T02:32:38;11.20;61.50
23713;DHT22;12035;49.978;8.298;2023-02-21T02:37:47;11.20;61.50
23713;DHT22;12035;49.978;8.298;2023-02-21T02:43:01;11.10;61.40
23713;DHT22;12035;49.978;8.298;2023-02-21T02:48:05;11.10;61.50
23713;DHT22;12035;49.978;8.298;2023-02-21T02:53:07;11.10;61.60
23713;DHT22;12035;49.978;8.298;2023-02-21T02:58:06;11.10;61.50
23713;DHT22;12035;49.978;8.298;2023-02-21T03:08:42;11.20;62.10
23713;DHT22;12035;49.978;8.298;2023-02-21T03:13:47;11.00;61.80
23713;DHT22;12035;49.978;8.298;2023-02-21T03:18:47;11.00;61.80
23713;DHT22;12035;49.978;8.298;2023-02-21T03:23:50;11.00;61.70
23713;DHT22;12035;49.978;8.298;2023-02-21T03:28:49;11.00;61.70
23713;DHT22;12035;49.978;8.298;2023-02-21T03:33:46;11.00;61.60
23713;DHT22;12035;49.978;8.298;2023-02-21T03:38:43;10.90;61.50
23713;DHT22;12035;49.978;8.298;2023-02-21T03:43:42;10.90;61.50
23713;DHT22;12035;49.978;8.298;2023-02-21T03:48:39;10.90;61.50
23713;DHT22;12035;49.978;8.298;2023-02-21T03:53:36;10.80;61.50
23713;DHT22;12035;49.978;8.298;2023-02-21T03:58:33;10.90;61.50
23713;DHT22;12035;49.978;8.298;2023-02-21T04:03:31;10.80;61.30
23713;DHT22;12035;49.978;8.298;2023-02-21T04:08:29;10.80;61.30
23713;DHT22;12035;49.978;8.298;2023-02-21T04:13:26;10.70;61.50
23713;DHT22;12035;49.978;8.298;2023-02-21T04:18:23;10.70;61.40
23713;DHT22;12035;49.978;8.298;2023-02-21T04:23:21;10.60;61.30
23713;DHT22;12035;49.978;8.298;2023-02-21T04:28:18;10.60;61.50
23713;DHT22;12035;49.978;8.298;2023-02-21T04:33:15;10.60;61.50
23713;DHT22;12035;49.978;8.298;2023-02-21T04:38:13;10.60;61.50
23713;DHT22;12035;49.978;8.298;2023-02-21T04:43:11;10.50;61.50
23713;DHT22;12035;49.978;8.298;2023-02-21T04:48:08;10.50;61.70
23713;DHT22;12035;49.978;8.298;2023-02-21T04:53:05;10.50;61.60
23713;DHT22;12035;49.978;8.298;2023-02-21T04:58:02;10.40;61.60
23713;DHT22;12035;49.978;8.298;2023-02-21T05:03:01;10.40;61.80
23713;DHT22;12035;49.978;8.298;2023-02-21T05:07:58;10.40;62.00
23713;DHT22;12035;49.978;8.298;2023-02-21T05:12:55;10.40;62.00
23713;DHT22;12035;49.978;8.298;2023-02-21T05:17:52;10.30;62.10
23713;DHT22;12035;49.978;8.298;2023-02-21T05:22:51;10.30;62.20
23713;DHT22;12035;49.978;8.298;2023-02-21T05:27:48;10.20;62.40
23713;DHT22;12035;49.978;8.298;2023-02-21T05:32:46;10.20;62.40
23713;DHT22;12035;49.978;8.298;2023-02-21T05:37:43;10.20;62.60
23713;DHT22;12035;49.978;8.298;2023-02-21T05:42:43;10.20;62.70
23713;DHT22;12035;49.978;8.298;2023-02-21T05:47:40;10.20;62.90
23713;DHT22;12035;49.978;8.298;2023-02-21T05:52:37;10.10;62.90
23713;DHT22;12035;49.978;8.298;2023-02-21T05:57:37;10.00;63.10
23713;DHT22;12035;49.978;8.298;2023-02-21T06:02:36;9.80;63.70
23713;DHT22;12035;49.978;8.298;2023-02-21T06:07:33;9.80;63.90
23713;DHT22;12035;49.978;8.298;2023-02-21T06:12:30;9.60;64.00
23713;DHT22;12035;49.978;8.298;2023-02-21T06:17:27;9.60;64.40
23713;DHT22;12035;49.978;8.298;2023-02-21T06:22:25;9.50;64.40
23713;DHT22;12035;49.978;8.298;2023-02-21T06:27:22;9.60;64.60
23713;DHT22;12035;49.978;8.298;2023-02-21T06:32:19;9.50;64.30
23713;DHT22;12035;49.978;8.298;2023-02-21T06:37:17;9.50;64.30
23713;DHT22;12035;49.978;8.298;2023-02-21T06:42:16;9.60;64.30
23713;DHT22;12035;49.978;8.298;2023-02-21T06:47:15;9.70;64.50
23713;DHT22;12035;49.978;8.298;2023-02-21T06:52:12;9.70;64.90
23713;DHT22;12035;49.978;8.298;2023-02-21T06:57:09;10.00;66.50
23713;DHT22;12035;49.978;8.298;2023-02-21T07:02:14;10.30;66.20
23713;DHT22;12035;49.978;8.298;2023-02-21T07:07:14;10.70;65.70
23713;DHT22;12035;49.978;8.298;2023-02-21T07:12:11;11.20;65.60
23713;DHT22;12035;49.978;8.298;2023-02-21T07:17:10;11.60;65.90
23713;DHT22;12035;49.978;8.298;2023-02-21T07:22:07;12.20;66.00
23713;DHT22;12035;49.978;8.298;2023-02-21T07:27:06;12.80;65.80
23713;DHT22;12035;49.978;8.298;2023-02-21T07:32:04;13.50;65.20
23713;DHT22;12035;49.978;8.298;2023-02-21T07:37:02;14.20;64.70
23713;DHT22;12035;49.978;8.298;2023-02-21T07:41:59;14.80;63.90
23713;DHT22;12035;49.978;8.298;2023-02-21T07:46:57;15.50;63.20
23713;DHT22;12035;49.978;8.298;2023-02-21T07:51:54;16.10;62.20
23713;DHT22;12035;49.978;8.298;2023-02-21T07:56:52;16.70;62.40
23713;DHT22;12035;49.978;8.298;2023-02-21T08:01:49;17.20;59.30
23713;DHT22;12035;49.978;8.298;2023-02-21T08:06:46;17.60;58.60
23713;DHT22;12035;49.978;8.298;2023-02-21T08:11:44;17.90;57.90
23713;DHT22;12035;49.978;8.298;2023-02-21T08:16:42;18.10;57.30
23713;DHT22;12035;49.978;8.298;2023-02-21T08:21:43;18.10;55.10
23713;DHT22;12035;49.978;8.298;2023-02-21T08:26:41;18.00;53.20
23713;DHT22;12035;49.978;8.298;2023-02-21T08:31:44;17.80;53.00
23713;DHT22;12035;49.978;8.298;2023-02-21T08:36:42;17.70;53.50
23713;DHT22;12035;49.978;8.298;2023-02-21T08:41:41;17.40;53.20
23713;DHT22;12035;49.978;8.298;2023-02-21T08:46:44;17.00;53.40
23713;DHT22;12035;49.978;8.298;2023-02-21T08:51:41;16.70;53.90
23713;DHT22;12035;49.978;8.298;2023-02-21T08:56:39;16.60;54.70
23713;DHT22;12035;49.978;8.298;2023-02-21T09:01:36;16.60;55.20
23713;DHT22;12035;49.978;8.298;2023-02-21T09:06:34;16.70;55.50
23713;DHT22;12035;49.978;8.298;2023-02-21T09:11:31;16.80;55.00
23713;DHT22;12035;49.978;8.298;2023-02-21T09:16:28;17.00;54.80
23713;DHT22;12035;49.978;8.298;2023-02-21T09:21:25;17.10;54.60
23713;DHT22;12035;49.978;8.298;2023-02-21T09:26:25;17.20;54.10
23713;DHT22;12035;49.978;8.298;2023-02-21T09:31:26;17.10;53.70
23713;DHT22;12035;49.978;8.298;2023-02-21T09:36:23;17.00;53.50
23713;DHT22;12035;49.978;8.298;2023-02-21T09:41:21;16.90;54.00
23713;DHT22;12035;49.978;8.298;2023-02-21T09:46:27;16.80;54.20
23713;DHT22;12035;49.978;8.298;2023-02-21T09:51:27;16.70;54.30
23713;DHT22;12035;49.978;8.298;2023-02-21T09:56:30;16.70;54.80
23713;DHT22;12035;49.978;8.298;2023-02-21T10:01:46;16.80;55.10
23713;DHT22;12035;49.978;8.298;2023-02-21T10:06:51;17.00;55.00
23713;DHT22;12035;49.978;8.298;2023-02-21T10:12:07;17.20;55.20
23713;DHT22;12035;49.978;8.298;2023-02-21T10:17:16;17.40;54.40
23713;DHT22;12035;49.978;8.298;2023-02-21T10:22:18;17.60;54.30
23713;DHT22;12035;49.978;8.298;2023-02-21T10:27:21;17.80;54.30
23713;DHT22;12035;49.978;8.298;2023-02-21T10:32:21;18.10;54.30
23713;DHT22;12035;49.978;8.298;2023-02-21T10:37:27;18.20;53.90
23713;DHT22;12035;49.978;8.298;2023-02-21T10:42:33;18.50;53.50
23713;DHT22;12035;49.978;8.298;2023-02-21T10:47:53;18.60;53.50
23713;DHT22;12035;49.978;8.298;2023-02-21T10:52:54;18.80;53.40
23713;DHT22;12035;49.978;8.298;2023-02-21T10:57:54;19.00;53.20
23713;DHT22;12035;49.978;8.298;2023-02-21T11:02:56;19.20;52.70
23713;DHT22;12035;49.978;8.298;2023-02-21T11:08:01;19.20;52.50
23713;DHT22;12035;49.978;8.298;2023-02-21T11:13:12;19.40;52.70
23713;DHT22;12035;49.978;8.298;2023-02-21T11:18:17;19.50;52.00
23713;DHT22;12035;49.978;8.298;2023-02-21T11:23:24;19.40;51.10
23713;DHT22;12035;49.978;8.298;2023-02-21T11:28:22;19.40;51.30
23713;DHT22;12035;49.978;8.298;2023-02-21T11:33:20;19.30;52.60
23713;DHT22;12035;49.978;8.298;2023-02-21T11:38:33;19.30;52.50
23713;DHT22;12035;49.978;8.298;2023-02-21T11:43:32;19.40;51.60
23713;DHT22;12035;49.978;8.298;2023-02-21T11:48:33;19.40;51.80
23713;DHT22;12035;49.978;8.298;2023-02-21T11:53:38;19.50;50.80
23713;DHT22;12035;49.978;8.298;2023-02-21T11:58:42;19.50;51.10
23713;DHT22;12035;49.978;8.298;2023-02-21T12:04:00;19.60;50.90
23713;DHT22;12035;49.978;8.298;2023-02-21T12:09:09;19.60;50.60
23713;DHT22;12035;49.978;8.298;2023-02-21T12:14:23;19.60;50.80
23713;DHT22;12035;49.978;8.298;2023-02-21T12:19:51;19.70;50.60
23713;DHT22;12035;49.978;8.298;2023-02-21T12:25:06;19.80;50.90
23713;DHT22;12035;49.978;8.298;2023-02-21T12:30:25;19.80;50.60
23713;DHT22;12035;49.978;8.298;2023-02-21T12:35:56;19.90;50.40
23713;DHT22;12035;49.978;8.298;2023-02-21T12:41:14;20.00;50.50
23713;DHT22;12035;49.978;8.298;2023-02-21T12:46:25;20.10;50.50
23713;DHT22;12035;49.978;8.298;2023-02-21T12:51:30;20.20;50.50
23713;DHT22;12035;49.978;8.298;2023-02-21T12:56:34;20.30;50.40
23713;DHT22;12035;49.978;8.298;2023-02-21T13:01:38;20.30;50.50
23713;DHT22;12035;49.978;8.298;2023-02-21T13:06:44;20.30;50.00
23713;DHT22;12035;49.978;8.298;2023-02-21T13:11:50;20.40;50.10
23713;DHT22;12035;49.978;8.298;2023-02-21T13:16:56;20.30;50.00
23713;DHT22;12035;49.978;8.298;2023-02-21T13:22:05;20.30;50.20
23713;DHT22;12035;49.978;8.298;2023-02-21T13:27:44;20.30;50.10
23713;DHT22;12035;49.978;8.298;2023-02-21T13:32:52;20.30;49.90
23713;DHT22;12035;49.978;8.298;2023-02-21T13:37:52;20.20;49.90
23713;DHT22;12035;49.978;8.298;2023-02-21T13:43:00;20.10;49.60
23713;DHT22;12035;49.978;8.298;2023-02-21T13:48:21;20.00;49.70
23713;DHT22;12035;49.978;8.298;2023-02-21T13:53:27;19.90;49.90
23713;DHT22;12035;49.978;8.298;2023-02-21T13:58:34;19.80;50.20
23713;DHT22;12035;49.978;8.298;2023-02-21T14:03:33;19.80;50.50
23713;DHT22;12035;49.978;8.298;2023-02-21T14:08:34;19.80;50.60
23713;DHT22;12035;49.978;8.298;2023-02-21T14:13:34;19.80;50.10
23713;DHT22;12035;49.978;8.298;2023-02-21T14:18:39;19.70;49.90
23713;DHT22;12035;49.978;8.298;2023-02-21T14:23:45;19.60;50.10
23713;DHT22;12035;49.978;8.298;2023-02-21T14:28:59;19.50;50.30
23713;DHT22;12035;49.978;8.298;2023-02-21T14:33:59;19.50;50.30
23713;DHT22;12035;49.978;8.298;2023-02-21T14:38:59;19.50;50.30
23713;DHT22;12035;49.978;8.298;2023-02-21T14:44:05;19.40;50.30
23713;DHT22;12035;49.978;8.298;2023-02-21T14:55:18;19.40;50.90
23713;DHT22;12035;49.978;8.298;2023-02-21T15:00:27;19.40;50.80
23713;DHT22;12035;49.978;8.298;2023-02-21T15:05:32;19.40;50.70
23713;DHT22;12035;49.978;8.298;2023-02-21T15:10:40;19.50;50.80
23713;DHT22;12035;49.978;8.298;2023-02-21T15:15:40;19.50;50.60
23713;DHT22;12035;49.978;8.298;2023-02-21T15:20:39;19.50;50.90
23713;DHT22;12035;49.978;8.298;2023-02-21T15:25:39;19.50;50.90
23713;DHT22;12035;49.978;8.298;2023-02-21T15:30:39;19.50;50.80
23713;DHT22;12035;49.978;8.298;2023-02-21T15:35:47;19.50;50.80
23713;DHT22;12035;49.978;8.298;2023-02-21T15:40:49;19.50;50.70
23713;DHT22;12035;49.978;8.298;2023-02-21T15:45:51;19.50;50.60
23713;DHT22;12035;49.978;8.298;2023-02-21T15:50:50;19.50;50.50
23713;DHT22;12035;49.978;8.298;2023-02-21T15:55:52;19.50;50.60
23713;DHT22;12035;49.978;8.298;2023-02-21T16:01:03;19.50;50.50
23713;DHT22;12035;49.978;8.298;2023-02-21T16:06:19;19.40;50.40
23713;DHT22;12035;49.978;8.298;2023-02-21T16:11:19;19.30;50.40
23713;DHT22;12035;49.978;8.298;2023-02-21T16:16:16;19.30;50.60
23713;DHT22;12035;49.978;8.298;2023-02-21T16:21:22;19.20;50.70
23713;DHT22;12035;49.978;8.298;2023-02-21T16:26:24;19.20;50.90
23713;DHT22;12035;49.978;8.298;2023-02-21T16:31:27;19.10;50.80
23713;DHT22;12035;49.978;8.298;2023-02-21T16:36:27;19.00;51.00
23713;DHT22;12035;49.978;8.298;2023-02-21T16:41:27;19.00;51.40
23713;DHT22;12035;49.978;8.298;2023-02-21T16:46:25;18.90;51.00
23713;DHT22;12035;49.978;8.298;2023-02-21T16:51:23;18.90;51.10
23713;DHT22;12035;49.978;8.298;2023-02-21T16:56:29;18.80;51.20
23713;DHT22;12035;49.978;8.298;2023-02-21T17:01:28;18.70;51.40
23713;DHT22;12035;49.978;8.298;2023-02-21T17:06:27;18.70;51.50
23713;DHT22;12035;49.978;8.298;2023-02-21T17:11:25;18.60;51.60
23713;DHT22;12035;49.978;8.298;2023-02-21T17:16:25;18.60;51.50
23713;DHT22;12035;49.978;8.298;2023-02-21T17:21:22;18.50;51.60
23713;DHT22;12035;49.978;8.298;2023-02-21T17:26:20;18.40;51.60
23713;DHT22;12035;49.978;8.298;2023-02-21T17:31:17;18.30;51.60
23713;DHT22;12035;49.978;8.298;2023-02-21T17:36:17;18.20;51.70
23713;DHT22;12035;49.978;8.298;2023-02-21T17:41:15;18.10;51.80
23713;DHT22;12035;49.978;8.298;2023-02-21T17:46:15;18.10;51.80
23713;DHT22;12035;49.978;8.298;2023-02-21T17:51:22;18.00;51.90
23713;DHT22;12035;49.978;8.298;2023-02-21T17:56:22;18.00;52.00
23713;DHT22;12035;49.978;8.298;2023-02-21T18:01:20;17.80;52.10
23713;DHT22;12035;49.978;8.298;2023-02-21T18:06:20;17.80;52.20
23713;DHT22;12035;49.978;8.298;2023-02-21T18:11:17;17.70;52.50
23713;DHT22;12035;49.978;8.298;2023-02-21T18:16:14;17.60;52.40
23713;DHT22;12035;49.978;8.298;2023-02-21T18:21:12;17.50;52.40
23713;DHT22;12035;49.978;8.298;2023-02-21T18:26:11;17.40;52.50
23713;DHT22;12035;49.978;8.298;2023-02-21T18:31:08;17.30;52.70
23713;DHT22;12035;49.978;8.298;2023-02-21T18:36:06;17.20;52.70
23713;DHT22;12035;49.978;8.298;2023-02-21T18:41:08;17.10;52.90
23713;DHT22;12035;49.978;8.298;2023-02-21T18:46:09;17.10;53.00
23713;DHT22;12035;49.978;8.298;2023-02-21T18:51:13;16.90;53.10
23713;DHT22;12035;49.978;8.298;2023-02-21T18:56:16;16.80;53.30
23713;DHT22;12035;49.978;8.298;2023-02-21T19:01:16;16.70;53.30
23713;DHT22;12035;49.978;8.298;2023-02-21T19:06:17;16.70;53.40
23713;DHT22;12035;49.978;8.298;2023-02-21T19:11:16;16.60;53.60
23713;DHT22;12035;49.978;8.298;2023-02-21T19:16:17;16.60;53.70
23713;DHT22;12035;49.978;8.298;2023-02-21T19:21:15;16.40;53.70
23713;DHT22;12035;49.978;8.298;2023-02-21T19:26:12;16.40;53.70
23713;DHT22;12035;49.978;8.298;2023-02-21T19:31:11;16.30;53.70
23713;DHT22;12035;49.978;8.298;2023-02-21T19:36:09;16.20;53.90
23713;DHT22;12035;49.978;8.298;2023-02-21T19:41:07;16.10;53.90
23713;DHT22;12035;49.978;8.298;2023-02-21T19:46:04;16.00;54.10
23713;DHT22;12035;49.978;8.298;2023-02-21T19:51:03;15.90;54.20
23713;DHT22;12035;49.978;8.298;2023-02-21T19:56:02;15.80;54.30
23713;DHT22;12035;49.978;8.298;2023-02-21T20:00:59;15.70;54.30
23713;DHT22;12035;49.978;8.298;2023-02-21T20:05:56;15.60;54.60
23713;DHT22;12035;49.978;8.298;2023-02-21T20:10:57;15.60;54.60
23713;DHT22;12035;49.978;8.298;2023-02-21T20:15:57;15.50;54.70
23713;DHT22;12035;49.978;8.298;2023-02-21T20:21:03;15.50;54.80
23713;DHT22;12035;49.978;8.298;2023-02-21T20:26:02;15.50;54.70
23713;DHT22;12035;49.978;8.298;2023-02-21T20:30:59;15.40;54.70
23713;DHT22;12035;49.978;8.298;2023-02-21T20:35:57;15.20;54.60
23713;DHT22;12035;49.978;8.298;2023-02-21T20:40:54;15.20;54.80
23713;DHT22;12035;49.978;8.298;2023-02-21T20:45:53;15.10;54.80
23713;DHT22;12035;49.978;8.298;2023-02-21T20:50:50;15.10;55.00
23713;DHT22;12035;49.978;8.298;2023-02-21T20:55:48;15.00;55.10
23713;DHT22;12035;49.978;8.298;2023-02-21T21:00:45;14.90;55.10
23713;DHT22;12035;49.978;8.298;2023-02-21T21:05:45;14.90;55.20
23713;DHT22;12035;49.978;8.298;2023-02-21T21:10:45;14.80;55.40
23713;DHT22;12035;49.978;8.298;2023-02-21T21:15:43;14.70;55.40
23713;DHT22;12035;49.978;8.298;2023-02-21T21:20:40;14.60;55.50
23713;DHT22;12035;49.978;8.298;2023-02-21T21:25:39;14.60;55.50
23713;DHT22;12035;49.978;8.298;2023-02-21T21:30:36;14.60;55.90
23713;DHT22;12035;49.978;8.298;2023-02-21T21:35:34;14.50;55.70
23713;DHT22;12035;49.978;8.298;2023-02-21T21:40:32;14.50;55.80
23713;DHT22;12035;49.978;8.298;2023-02-21T21:45:30;14.40;55.90
23713;DHT22;12035;49.978;8.298;2023-02-21T21:50:38;14.40;56.00
23713;DHT22;12035;49.978;8.298;2023-02-21T21:55:36;14.30;56.00
23713;DHT22;12035;49.978;8.298;2023-02-21T22:00:36;14.20;56.10
23713;DHT22;12035;49.978;8.298;2023-02-21T22:05:41;14.20;56.20
23713;DHT22;12035;49.978;8.298;2023-02-21T22:10:39;14.20;56.10
23713;DHT22;12035;49.978;8.298;2023-02-21T22:15:37;14.10;56.10
23713;DHT22;12035;49.978;8.298;2023-02-21T22:20:38;14.00;56.10
23713;DHT22;12035;49.978;8.298;2023-02-21T22:25:37;14.00;56.20
23713;DHT22;12035;49.978;8.298;2023-02-21T22:30:36;13.90;56.20
23713;DHT22;12035;49.978;8.298;2023-02-21T22:35:33;13.90;56.40
23713;DHT22;12035;49.978;8.298;2023-02-21T22:40:37;13.80;56.40
23713;DHT22;12035;49.978;8.298;2023-02-21T22:45:36;13.80;56.50
23713;DHT22;12035;49.978;8.298;2023-02-21T22:50:33;13.70;56.40
23713;DHT22;12035;49.978;8.298;2023-02-21T22:55:32;13.60;56.40
23713;DHT22;12035;49.978;8.298;2023-02-21T23:00:33;13.60;56.50
23713;DHT22;12035;49.978;8.298;2023-02-21T23:05:32;13.50;56.60
23713;DHT22;12035;49.978;8.298;2023-02-21T23:10:29;13.40;56.60
23713;DHT22;12035;49.978;8.298;2023-02-21T23:15:28;13.30;56.60
23713;DHT22;12035;49.978;8.298;2023-02-21T23:20:25;13.30;56.80
23713;DHT22;12035;49.978;8.298;2023-02-21T23:25:27;13.20;57.00
23713;DHT22;12035;49.978;8.298;2023-02-21T23:30:30;13.10;57.30
23713;DHT22;12035;49.978;8.298;2023-02-21T23:35:35;13.10;57.40
23713;DHT22;12035;49.978;8.298;2023-02-21T23:40:34;13.00;57.40
23713;DHT22;12035;49.978;8.298;2023-02-21T23:45:33;13.00;57.70
23713;DHT22;12035;49.978;8.298;2023-02-21T23:50:30;12.90;57.70
23713;DHT22;12035;49.978;8.298;2023-02-21T23:55:28;12.90;57.70
